sensor_id;sensor_type;location;lat;lon;timestamp;temperature;humidity
3023;DHT22;1521;53.584;9.938;2024-03-02T00:00:19;8.70;99.90
3023;DHT22;1521;53.584;9.938;2024-03-02T00:02:48;8.70;1.00
3023;DHT22;1521;53.584;9.938;2024-03-02T00:05:18;8.70;1.00
3023;DHT22;1521;53.584;9.938;2024-03-02T00:07:55;8.70;1.00
3023;DHT22;1521;53.584;9.938;2024-03-02T00:10:40;8.60;1.00
3023;DHT22;1521;53.584;9.938;2024-03-02T00:13:07;8.60;1.00
3023;DHT22;1521;53.584;9.938;2024-03-02T00:15:42;8.70;1.00
3023;DHT22;1521;53.584;9.938;2024-03-02T00:18:11;8.70;1.00
3023;DHT22;1521;53.584;9.938;2024-03-02T00:20:37;8.60;1.00
3023;DHT22;1521;53.584;9.938;2024-03-02T00:23:04;8.60;1.00
3023;DHT22;1521;53.584;9.938;2024-03-02T00:25:39;8.70;1.00
3023;DHT22;1521;53.584;9.938;2024-03-02T00:28:17;8.70;1.00
3023;DHT22;1521;53.584;9.938;2024-03-02T00:31:04;8.70;1.00
3023;DHT22;1521;53.584;9.938;2024-03-02T00:33:37;8.80;99.90
3023;DHT22;1521;53.584;9.938;2024-03-02T00:36:06;8.80;99.90
3023;DHT22;1521;53.584;9.938;2024-03-02T00:38:32;8.80;99.90
3023;DHT22;1521;53.584;9.938;2024-03-02T00:41:03;8.80;99.90
3023;DHT22;1521;53.584;9.938;2024-03-02T00:46:17;8.80;99.90
3023;DHT22;1521;53.584;9.938;2024-03-02T00:48:54;8.80;99.90
3023;DHT22;1521;53.584;9.938;2024-03-02T00:51:21;8.80;99.90
3023;DHT22;1521;53.584;9.938;2024-03-02T00:53:48;8.80;99.90
3023;DHT22;1521;53.584;9.938;2024-03-02T00:56:14;8.80;99.90
3023;DHT22;1521;53.584;9.938;2024-03-02T00:58:42;8.80;99.90
3023;DHT22;1521;53.584;9.938;2024-03-02T01:01:08;8.80;99.90
3023;DHT22;1521;53.584;9.938;2024-03-02T01:03:34;8.90;99.90
3023;DHT22;1521;53.584;9.938;2024-03-02T01:05:59;8.90;99.90
3023;DHT22;1521;53.584;9.938;2024-03-02T01:08:25;8.90;99.90
3023;DHT22;1521;53.584;9.938;2024-03-02T01:10:51;8.80;99.90
3023;DHT22;1521;53.584;9.938;2024-03-02T01:13:17;8.80;99.90
3023;DHT22;1521;53.584;9.938;2024-03-02T01:15:43;8.70;99.90
3023;DHT22;1521;53.584;9.938;2024-03-02T01:18:09;8.70;99.90
3023;DHT22;1521;53.584;9.938;2024-03-02T01:20:35;8.70;99.90
3023;DHT22;1521;53.584;9.938;2024-03-02T01:23:00;8.70;1.00
3023;DHT22;1521;53.584;9.938;2024-03-02T01:25:26;8.70;1.00
3023;DHT22;1521;53.584;9.938;2024-03-02T01:27:51;8.70;1.00
3023;DHT22;1521;53.584;9.938;2024-03-02T01:30:17;8.80;1.00
3023;DHT22;1521;53.584;9.938;2024-03-02T01:32:43;10.30;1.00
3023;DHT22;1521;53.584;9.938;2024-03-02T01:35:08;8.80;1.00
3023;DHT22;1521;53.584;9.938;2024-03-02T01:37:34;8.70;1.00
3023;DHT22;1521;53.584;9.938;2024-03-02T01:40:00;8.70;33.00
3023;DHT22;1521;53.584;9.938;2024-03-02T01:42:25;8.60;99.90
3023;DHT22;1521;53.584;9.938;2024-03-02T01:44:51;9.80;99.90
3023;DHT22;1521;53.584;9.938;2024-03-02T01:47:17;8.60;1.00
3023;DHT22;1521;53.584;9.938;2024-03-02T01:49:42;8.50;1.00
3023;DHT22;1521;53.584;9.938;2024-03-02T01:52:08;8.50;1.00
3023;DHT22;1521;53.584;9.938;2024-03-02T01:54:33;8.40;99.90
3023;DHT22;1521;53.584;9.938;2024-03-02T01:56:59;8.40;99.90
3023;DHT22;1521;53.584;9.938;2024-03-02T01:59:25;8.40;1.00
3023;DHT22;1521;53.584;9.938;2024-03-02T02:01:51;8.40;4.60
3023;DHT22;1521;53.584;9.938;2024-03-02T02:04:16;8.40;99.90
3023;DHT22;1521;53.584;9.938;2024-03-02T02:06:44;8.30;99.90
3023;DHT22;1521;53.584;9.938;2024-03-02T02:09:09;8.30;1.00
3023;DHT22;1521;53.584;9.938;2024-03-02T02:11:35;8.40;1.00
3023;DHT22;1521;53.584;9.938;2024-03-02T02:14:01;8.40;1.00
3023;DHT22;1521;53.584;9.938;2024-03-02T02:16:26;8.20;99.90
3023;DHT22;1521;53.584;9.938;2024-03-02T02:18:52;8.30;8.60
3023;DHT22;1521;53.584;9.938;2024-03-02T02:21:21;8.20;1.00
3023;DHT22;1521;53.584;9.938;2024-03-02T02:23:47;8.20;99.90
3023;DHT22;1521;53.584;9.938;2024-03-02T02:26:13;8.20;75.50
3023;DHT22;1521;53.584;9.938;2024-03-02T02:28:39;8.20;1.00
3023;DHT22;1521;53.584;9.938;2024-03-02T02:31:12;8.20;1.00
3023;DHT22;1521;53.584;9.938;2024-03-02T02:33:39;8.20;1.00
3023;DHT22;1521;53.584;9.938;2024-03-02T02:36:05;8.10;51.70
3023;DHT22;1521;53.584;9.938;2024-03-02T02:38:37;8.10;1.00
3023;DHT22;1521;53.584;9.938;2024-03-02T02:41:03;8.00;99.90
3023;DHT22;1521;53.584;9.938;2024-03-02T02:43:29;8.00;1.00
3023;DHT22;1521;53.584;9.938;2024-03-02T02:45:54;8.00;1.00
3023;DHT22;1521;53.584;9.938;2024-03-02T02:48:20;8.00;1.00
3023;DHT22;1521;53.584;9.938;2024-03-02T02:50:45;8.00;99.90
3023;DHT22;1521;53.584;9.938;2024-03-02T02:53:11;8.00;1.00
3023;DHT22;1521;53.584;9.938;2024-03-02T02:55:37;8.00;1.00
3023;DHT22;1521;53.584;9.938;2024-03-02T02:58:06;7.90;99.90
3023;DHT22;1521;53.584;9.938;2024-03-02T03:00:31;7.90;1.00
3023;DHT22;1521;53.584;9.938;2024-03-02T03:02:57;7.90;1.00
3023;DHT22;1521;53.584;9.938;2024-03-02T03:05:23;8.00;99.90
3023;DHT22;1521;53.584;9.938;2024-03-02T03:07:49;8.00;1.00
3023;DHT22;1521;53.584;9.938;2024-03-02T03:10:16;7.90;99.90
3023;DHT22;1521;53.584;9.938;2024-03-02T03:12:42;7.90;99.90
3023;DHT22;1521;53.584;9.938;2024-03-02T03:15:09;7.90;1.00
3023;DHT22;1521;53.584;9.938;2024-03-02T03:17:35;7.90;1.00
3023;DHT22;1521;53.584;9.938;2024-03-02T03:20:03;7.90;99.90
3023;DHT22;1521;53.584;9.938;2024-03-02T03:22:30;7.90;99.90
3023;DHT22;1521;53.584;9.938;2024-03-02T03:24:56;7.90;99.90
3023;DHT22;1521;53.584;9.938;2024-03-02T03:27:22;7.90;99.90
3023;DHT22;1521;53.584;9.938;2024-03-02T03:29:47;7.90;99.90
3023;DHT22;1521;53.584;9.938;2024-03-02T03:32:13;7.90;99.90
3023;DHT22;1521;53.584;9.938;2024-03-02T03:34:39;7.90;99.90
3023;DHT22;1521;53.584;9.938;2024-03-02T03:37:05;7.90;1.00
3023;DHT22;1521;53.584;9.938;2024-03-02T03:39:31;7.80;1.00
3023;DHT22;1521;53.584;9.938;2024-03-02T03:41:56;7.90;21.20
3023;DHT22;1521;53.584;9.938;2024-03-02T03:44:22;7.80;99.90
3023;DHT22;1521;53.584;9.938;2024-03-02T03:46:48;7.80;1.00
3023;DHT22;1521;53.584;9.938;2024-03-02T03:49:13;7.80;99.90
3023;DHT22;1521;53.584;9.938;2024-03-02T03:51:39;7.90;99.90
3023;DHT22;1521;53.584;9.938;2024-03-02T03:54:04;7.90;99.90
3023;DHT22;1521;53.584;9.938;2024-03-02T03:56:30;7.90;1.00
3023;DHT22;1521;53.584;9.938;2024-03-02T03:58:55;7.90;1.00
3023;DHT22;1521;53.584;9.938;2024-03-02T04:01:21;7.90;99.90
3023;DHT22;1521;53.584;9.938;2024-03-02T04:03:48;7.90;99.90
3023;DHT22;1521;53.584;9.938;2024-03-02T04:06:14;7.80;26.00
3023;DHT22;1521;53.584;9.938;2024-03-02T04:08:41;7.90;1.00
3023;DHT22;1521;53.584;9.938;2024-03-02T04:11:07;7.90;1.00
3023;DHT22;1521;53.584;9.938;2024-03-02T04:13:33;7.90;99.90
3023;DHT22;1521;53.584;9.938;2024-03-02T04:15:58;7.90;1.00
3023;DHT22;1521;53.584;9.938;2024-03-02T04:18:24;7.90;1.00
3023;DHT22;1521;53.584;9.938;2024-03-02T04:20:50;7.90;99.90
3023;DHT22;1521;53.584;9.938;2024-03-02T04:23:15;7.90;1.00
3023;DHT22;1521;53.584;9.938;2024-03-02T04:25:41;8.00;99.90
3023;DHT22;1521;53.584;9.938;2024-03-02T04:28:06;8.00;1.00
3023;DHT22;1521;53.584;9.938;2024-03-02T04:30:32;8.00;1.00
3023;DHT22;1521;53.584;9.938;2024-03-02T04:32:57;8.00;99.90
3023;DHT22;1521;53.584;9.938;2024-03-02T04:35:23;8.00;99.90
3023;DHT22;1521;53.584;9.938;2024-03-02T04:37:49;8.00;50.20
3023;DHT22;1521;53.584;9.938;2024-03-02T04:40:14;8.00;1.00
3023;DHT22;1521;53.584;9.938;2024-03-02T04:42:40;7.90;1.00
3023;DHT22;1521;53.584;9.938;2024-03-02T04:45:06;8.00;1.60
3023;DHT22;1521;53.584;9.938;2024-03-02T04:47:32;8.00;1.00
3023;DHT22;1521;53.584;9.938;2024-03-02T04:49:58;8.00;99.90
3023;DHT22;1521;53.584;9.938;2024-03-02T04:52:23;8.00;99.90
3023;DHT22;1521;53.584;9.938;2024-03-02T04:54:49;8.10;99.90
3023;DHT22;1521;53.584;9.938;2024-03-02T04:57:33;8.10;99.90
3023;DHT22;1521;53.584;9.938;2024-03-02T04:59:59;8.00;48.00
3023;DHT22;1521;53.584;9.938;2024-03-02T05:02:24;7.90;99.90
3023;DHT22;1521;53.584;9.938;2024-03-02T05:04:50;7.90;99.90
3023;DHT22;1521;53.584;9.938;2024-03-02T05:07:15;7.80;99.90
3023;DHT22;1521;53.584;9.938;2024-03-02T05:09:41;7.80;99.90
3023;DHT22;1521;53.584;9.938;2024-03-02T05:12:07;7.80;1.00
3023;DHT22;1521;53.584;9.938;2024-03-02T05:14:51;7.70;1.00
3023;DHT22;1521;53.584;9.938;2024-03-02T05:17:17;7.70;1.00
3023;DHT22;1521;53.584;9.938;2024-03-02T05:19:43;7.80;1.00
3023;DHT22;1521;53.584;9.938;2024-03-02T05:22:08;7.80;1.00
3023;DHT22;1521;53.584;9.938;2024-03-02T05:24:34;7.90;1.00
3023;DHT22;1521;53.584;9.938;2024-03-02T05:26:59;7.80;99.90
3023;DHT22;1521;53.584;9.938;2024-03-02T05:29:25;7.80;99.90
3023;DHT22;1521;53.584;9.938;2024-03-02T05:31:50;7.70;99.90
3023;DHT22;1521;53.584;9.938;2024-03-02T05:34:16;7.70;99.90
3023;DHT22;1521;53.584;9.938;2024-03-02T05:36:41;7.70;1.00
3023;DHT22;1521;53.584;9.938;2024-03-02T05:39:07;7.70;99.90
3023;DHT22;1521;53.584;9.938;2024-03-02T05:41:35;7.80;99.90
3023;DHT22;1521;53.584;9.938;2024-03-02T05:44:01;7.80;99.90
3023;DHT22;1521;53.584;9.938;2024-03-02T05:46:27;7.80;99.90
3023;DHT22;1521;53.584;9.938;2024-03-02T05:48:52;7.80;69.60
3023;DHT22;1521;53.584;9.938;2024-03-02T05:51:18;7.70;9.60
3023;DHT22;1521;53.584;9.938;2024-03-02T05:53:43;7.70;99.90
3023;DHT22;1521;53.584;9.938;2024-03-02T05:56:09;7.70;80.20
3023;DHT22;1521;53.584;9.938;2024-03-02T05:58:35;7.70;99.90
3023;DHT22;1521;53.584;9.938;2024-03-02T06:01:03;7.70;99.90
3023;DHT22;1521;53.584;9.938;2024-03-02T06:03:30;7.60;99.90
3023;DHT22;1521;53.584;9.938;2024-03-02T06:05:55;7.60;93.80
3023;DHT22;1521;53.584;9.938;2024-03-02T06:08:21;7.60;99.90
3023;DHT22;1521;53.584;9.938;2024-03-02T06:10:46;7.50;99.90
3023;DHT22;1521;53.584;9.938;2024-03-02T06:13:12;7.50;99.90
3023;DHT22;1521;53.584;9.938;2024-03-02T06:15:38;7.50;1.00
3023;DHT22;1521;53.584;9.938;2024-03-02T06:18:03;7.50;1.00
3023;DHT22;1521;53.584;9.938;2024-03-02T06:20:29;7.40;1.00
3023;DHT22;1521;53.584;9.938;2024-03-02T06:22:57;7.40;1.00
3023;DHT22;1521;53.584;9.938;2024-03-02T06:25:23;7.40;1.00
3023;DHT22;1521;53.584;9.938;2024-03-02T06:27:48;7.30;99.90
3023;DHT22;1521;53.584;9.938;2024-03-02T06:30:14;7.40;99.90
3023;DHT22;1521;53.584;9.938;2024-03-02T06:32:40;7.40;99.90
3023;DHT22;1521;53.584;9.938;2024-03-02T06:35:05;7.40;99.90
3023;DHT22;1521;53.584;9.938;2024-03-02T06:37:34;7.40;99.90
3023;DHT22;1521;53.584;9.938;2024-03-02T06:39:59;7.40;99.90
3023;DHT22;1521;53.584;9.938;2024-03-02T06:42:25;7.40;99.90
3023;DHT22;1521;53.584;9.938;2024-03-02T06:44:50;7.40;99.90
3023;DHT22;1521;53.584;9.938;2024-03-02T06:47:16;7.50;49.40
3023;DHT22;1521;53.584;9.938;2024-03-02T06:49:42;7.40;1.00
3023;DHT22;1521;53.584;9.938;2024-03-02T06:52:07;7.40;1.00
3023;DHT22;1521;53.584;9.938;2024-03-02T06:54:33;7.50;1.00
3023;DHT22;1521;53.584;9.938;2024-03-02T06:57:00;7.50;1.00
3023;DHT22;1521;53.584;9.938;2024-03-02T06:59:25;7.50;1.00
3023;DHT22;1521;53.584;9.938;2024-03-02T07:01:51;7.60;1.00
3023;DHT22;1521;53.584;9.938;2024-03-02T07:04:16;7.60;1.00
3023;DHT22;1521;53.584;9.938;2024-03-02T07:06:42;7.70;99.90
3023;DHT22;1521;53.584;9.938;2024-03-02T07:09:07;7.80;99.90
3023;DHT22;1521;53.584;9.938;2024-03-02T07:11:36;7.90;1.00
3023;DHT22;1521;53.584;9.938;2024-03-02T07:14:01;8.00;1.00
3023;DHT22;1521;53.584;9.938;2024-03-02T07:16:27;8.00;99.90
3023;DHT22;1521;53.584;9.938;2024-03-02T07:18:58;8.10;99.90
3023;DHT22;1521;53.584;9.938;2024-03-02T07:21:24;8.20;81.30
3023;DHT22;1521;53.584;9.938;2024-03-02T07:23:50;8.20;1.00
3023;DHT22;1521;53.584;9.938;2024-03-02T07:26:16;8.20;1.00
3023;DHT22;1521;53.584;9.938;2024-03-02T07:28:44;8.30;1.00
3023;DHT22;1521;53.584;9.938;2024-03-02T07:31:10;8.40;1.00
3023;DHT22;1521;53.584;9.938;2024-03-02T07:33:35;8.40;1.00
3023;DHT22;1521;53.584;9.938;2024-03-02T07:36:01;8.50;1.00
3023;DHT22;1521;53.584;9.938;2024-03-02T07:38:28;8.60;1.00
3023;DHT22;1521;53.584;9.938;2024-03-02T07:40:54;9.80;1.00
3023;DHT22;1521;53.584;9.938;2024-03-02T07:43:20;8.50;99.90
3023;DHT22;1521;53.584;9.938;2024-03-02T07:45:47;8.60;99.90
3023;DHT22;1521;53.584;9.938;2024-03-02T07:48:13;8.60;99.90
3023;DHT22;1521;53.584;9.938;2024-03-02T07:50:39;8.60;99.90
3023;DHT22;1521;53.584;9.938;2024-03-02T07:53:05;10.40;99.90
3023;DHT22;1521;53.584;9.938;2024-03-02T07:55:31;8.70;99.90
3023;DHT22;1521;53.584;9.938;2024-03-02T07:57:57;8.80;99.90
3023;DHT22;1521;53.584;9.938;2024-03-02T08:00:23;8.90;99.90
3023;DHT22;1521;53.584;9.938;2024-03-02T08:02:50;9.00;99.90
3023;DHT22;1521;53.584;9.938;2024-03-02T08:05:19;9.00;99.90
3023;DHT22;1521;53.584;9.938;2024-03-02T08:07:45;8.90;99.90
3023;DHT22;1521;53.584;9.938;2024-03-02T08:10:12;8.90;99.90
3023;DHT22;1521;53.584;9.938;2024-03-02T08:12:37;8.80;99.90
3023;DHT22;1521;53.584;9.938;2024-03-02T08:15:03;8.80;99.90
3023;DHT22;1521;53.584;9.938;2024-03-02T08:17:30;8.80;99.90
3023;DHT22;1521;53.584;9.938;2024-03-02T08:19:56;8.70;99.90
3023;DHT22;1521;53.584;9.938;2024-03-02T08:22:22;8.80;99.90
3023;DHT22;1521;53.584;9.938;2024-03-02T08:24:48;8.80;99.90
3023;DHT22;1521;53.584;9.938;2024-03-02T08:27:14;8.80;99.90
3023;DHT22;1521;53.584;9.938;2024-03-02T08:29:40;8.80;99.90
3023;DHT22;1521;53.584;9.938;2024-03-02T08:32:06;8.80;99.90
3023;DHT22;1521;53.584;9.938;2024-03-02T08:34:32;8.90;99.90
3023;DHT22;1521;53.584;9.938;2024-03-02T08:36:59;8.90;99.90
3023;DHT22;1521;53.584;9.938;2024-03-02T08:39:24;8.90;99.90
3023;DHT22;1521;53.584;9.938;2024-03-02T08:41:50;9.00;99.90
3023;DHT22;1521;53.584;9.938;2024-03-02T08:44:16;9.00;99.90
3023;DHT22;1521;53.584;9.938;2024-03-02T08:46:42;9.10;99.90
3023;DHT22;1521;53.584;9.938;2024-03-02T08:49:09;9.40;99.90
3023;DHT22;1521;53.584;9.938;2024-03-02T08:51:35;9.70;99.90
3023;DHT22;1521;53.584;9.938;2024-03-02T08:54:00;10.00;99.90
3023;DHT22;1521;53.584;9.938;2024-03-02T08:56:26;10.20;99.90
3023;DHT22;1521;53.584;9.938;2024-03-02T08:58:52;10.60;99.90
3023;DHT22;1521;53.584;9.938;2024-03-02T09:01:18;11.00;95.10
3023;DHT22;1521;53.584;9.938;2024-03-02T09:03:45;11.40;49.30
3023;DHT22;1521;53.584;9.938;2024-03-02T09:06:11;11.80;6.30
3023;DHT22;1521;53.584;9.938;2024-03-02T09:08:37;12.00;1.00
3023;DHT22;1521;53.584;9.938;2024-03-02T09:11:04;12.10;1.00
3023;DHT22;1521;53.584;9.938;2024-03-02T09:13:31;12.10;1.00
3023;DHT22;1521;53.584;9.938;2024-03-02T09:15:56;12.00;1.00
3023;DHT22;1521;53.584;9.938;2024-03-02T09:18:22;11.90;1.00
3023;DHT22;1521;53.584;9.938;2024-03-02T09:20:48;11.80;1.00
3023;DHT22;1521;53.584;9.938;2024-03-02T09:23:13;11.90;1.00
3023;DHT22;1521;53.584;9.938;2024-03-02T09:25:39;11.80;1.00
3023;DHT22;1521;53.584;9.938;2024-03-02T09:28:05;11.80;1.00
3023;DHT22;1521;53.584;9.938;2024-03-02T09:30:30;11.90;1.00
3023;DHT22;1521;53.584;9.938;2024-03-02T09:32:56;11.80;1.00
3023;DHT22;1521;53.584;9.938;2024-03-02T09:35:22;11.70;1.00
3023;DHT22;1521;53.584;9.938;2024-03-02T09:37:47;11.60;1.00
3023;DHT22;1521;53.584;9.938;2024-03-02T09:40:13;11.60;1.00
3023;DHT22;1521;53.584;9.938;2024-03-02T09:42:39;11.90;1.00
3023;DHT22;1521;53.584;9.938;2024-03-02T09:45:06;12.30;1.00
3023;DHT22;1521;53.584;9.938;2024-03-02T09:47:32;12.50;1.00
3023;DHT22;1521;53.584;9.938;2024-03-02T09:49:58;12.70;1.00
3023;DHT22;1521;53.584;9.938;2024-03-02T09:52:24;12.60;1.00
3023;DHT22;1521;53.584;9.938;2024-03-02T09:54:50;12.60;1.00
3023;DHT22;1521;53.584;9.938;2024-03-02T09:57:16;12.60;1.00
3023;DHT22;1521;53.584;9.938;2024-03-02T09:59:41;12.80;1.00
3023;DHT22;1521;53.584;9.938;2024-03-02T10:02:07;12.90;1.00
3023;DHT22;1521;53.584;9.938;2024-03-02T10:04:33;12.80;1.00
3023;DHT22;1521;53.584;9.938;2024-03-02T10:07:11;12.90;1.00
3023;DHT22;1521;53.584;9.938;2024-03-02T10:09:37;12.80;1.00
3023;DHT22;1521;53.584;9.938;2024-03-02T10:12:07;12.90;1.00
3023;DHT22;1521;53.584;9.938;2024-03-02T10:14:33;12.90;1.00
3023;DHT22;1521;53.584;9.938;2024-03-02T10:17:03;13.00;1.00
3023;DHT22;1521;53.584;9.938;2024-03-02T10:19:29;13.30;1.00
3023;DHT22;1521;53.584;9.938;2024-03-02T10:22:00;13.60;1.00
3023;DHT22;1521;53.584;9.938;2024-03-02T10:24:26;13.60;1.00
3023;DHT22;1521;53.584;9.938;2024-03-02T10:26:52;13.40;1.00
3023;DHT22;1521;53.584;9.938;2024-03-02T10:29:18;13.50;1.00
3023;DHT22;1521;53.584;9.938;2024-03-02T10:31:45;13.30;1.00
3023;DHT22;1521;53.584;9.938;2024-03-02T10:34:12;13.30;1.00
3023;DHT22;1521;53.584;9.938;2024-03-02T10:36:41;13.40;1.00
3023;DHT22;1521;53.584;9.938;2024-03-02T10:39:08;13.30;1.00
3023;DHT22;1521;53.584;9.938;2024-03-02T10:41:38;13.40;1.00
3023;DHT22;1521;53.584;9.938;2024-03-02T10:44:09;13.40;1.00
3023;DHT22;1521;53.584;9.938;2024-03-02T10:46:36;13.50;1.00
3023;DHT22;1521;53.584;9.938;2024-03-02T10:49:03;13.70;1.00
3023;DHT22;1521;53.584;9.938;2024-03-02T10:51:32;13.80;1.00
3023;DHT22;1521;53.584;9.938;2024-03-02T10:54:02;14.00;1.00
3023;DHT22;1521;53.584;9.938;2024-03-02T10:59:01;14.60;1.00
3023;DHT22;1521;53.584;9.938;2024-03-02T11:01:29;14.60;1.00
3023;DHT22;1521;53.584;9.938;2024-03-02T11:03:57;14.60;1.00
3023;DHT22;1521;53.584;9.938;2024-03-02T11:06:24;14.60;1.00
3023;DHT22;1521;53.584;9.938;2024-03-02T11:08:52;14.60;1.00
3023;DHT22;1521;53.584;9.938;2024-03-02T11:11:28;14.70;1.00
3023;DHT22;1521;53.584;9.938;2024-03-02T11:13:57;14.60;1.00
3023;DHT22;1521;53.584;9.938;2024-03-02T11:16:34;14.80;1.00
3023;DHT22;1521;53.584;9.938;2024-03-02T11:19:05;14.70;1.00
3023;DHT22;1521;53.584;9.938;2024-03-02T11:21:33;14.70;1.00
3023;DHT22;1521;53.584;9.938;2024-03-02T11:23:59;15.00;1.00
3023;DHT22;1521;53.584;9.938;2024-03-02T11:26:25;14.80;1.00
3023;DHT22;1521;53.584;9.938;2024-03-02T11:28:50;14.80;1.00
3023;DHT22;1521;53.584;9.938;2024-03-02T11:31:16;14.60;1.00
3023;DHT22;1521;53.584;9.938;2024-03-02T11:33:42;14.70;1.00
3023;DHT22;1521;53.584;9.938;2024-03-02T11:36:08;14.80;1.00
3023;DHT22;1521;53.584;9.938;2024-03-02T11:38:35;14.70;1.00
3023;DHT22;1521;53.584;9.938;2024-03-02T11:41:07;14.70;1.00
3023;DHT22;1521;53.584;9.938;2024-03-02T11:43:37;14.80;1.00
3023;DHT22;1521;53.584;9.938;2024-03-02T11:46:05;14.70;1.00
3023;DHT22;1521;53.584;9.938;2024-03-02T11:48:36;14.60;1.00
3023;DHT22;1521;53.584;9.938;2024-03-02T11:51:02;14.50;1.00
3023;DHT22;1521;53.584;9.938;2024-03-02T11:53:28;14.40;1.00
3023;DHT22;1521;53.584;9.938;2024-03-02T11:55:58;14.30;1.00
3023;DHT22;1521;53.584;9.938;2024-03-02T11:58:24;14.40;1.00
3023;DHT22;1521;53.584;9.938;2024-03-02T12:00:54;14.40;1.00
3023;DHT22;1521;53.584;9.938;2024-03-02T12:03:22;14.40;1.00
3023;DHT22;1521;53.584;9.938;2024-03-02T12:05:49;14.30;1.00
3023;DHT22;1521;53.584;9.938;2024-03-02T12:08:15;14.30;1.00
3023;DHT22;1521;53.584;9.938;2024-03-02T12:10:41;14.30;1.00
3023;DHT22;1521;53.584;9.938;2024-03-02T12:13:07;14.50;1.00
3023;DHT22;1521;53.584;9.938;2024-03-02T12:15:36;14.40;1.00
3023;DHT22;1521;53.584;9.938;2024-03-02T12:18:05;14.30;1.00
3023;DHT22;1521;53.584;9.938;2024-03-02T12:20:32;14.30;1.00
3023;DHT22;1521;53.584;9.938;2024-03-02T12:23:00;14.50;1.00
3023;DHT22;1521;53.584;9.938;2024-03-02T12:25:26;14.50;1.00
3023;DHT22;1521;53.584;9.938;2024-03-02T12:27:57;14.60;1.00
3023;DHT22;1521;53.584;9.938;2024-03-02T12:30:24;14.60;1.00
3023;DHT22;1521;53.584;9.938;2024-03-02T12:32:50;14.60;1.00
3023;DHT22;1521;53.584;9.938;2024-03-02T12:35:17;14.60;1.00
3023;DHT22;1521;53.584;9.938;2024-03-02T12:37:50;14.40;1.00
3023;DHT22;1521;53.584;9.938;2024-03-02T12:40:17;14.30;1.00
3023;DHT22;1521;53.584;9.938;2024-03-02T12:42:47;14.10;1.00
3023;DHT22;1521;53.584;9.938;2024-03-02T12:45:16;14.10;1.00
3023;DHT22;1521;53.584;9.938;2024-03-02T12:47:42;14.10;1.00
3023;DHT22;1521;53.584;9.938;2024-03-02T12:50:09;14.10;1.00
3023;DHT22;1521;53.584;9.938;2024-03-02T12:52:35;14.10;1.00
3023;DHT22;1521;53.584;9.938;2024-03-02T12:55:03;14.10;1.00
3023;DHT22;1521;53.584;9.938;2024-03-02T12:57:30;13.90;1.00
3023;DHT22;1521;53.584;9.938;2024-03-02T13:02:30;13.80;1.00
3023;DHT22;1521;53.584;9.938;2024-03-02T13:04:57;14.00;1.00
3023;DHT22;1521;53.584;9.938;2024-03-02T13:07:26;14.00;1.00
3023;DHT22;1521;53.584;9.938;2024-03-02T13:09:53;14.10;1.00
3023;DHT22;1521;53.584;9.938;2024-03-02T13:12:21;14.10;1.00
3023;DHT22;1521;53.584;9.938;2024-03-02T13:14:51;14.30;1.00
3023;DHT22;1521;53.584;9.938;2024-03-02T13:17:18;14.20;1.00
3023;DHT22;1521;53.584;9.938;2024-03-02T13:20:04;14.30;1.00
3023;DHT22;1521;53.584;9.938;2024-03-02T13:22:33;14.20;1.00
3023;DHT22;1521;53.584;9.938;2024-03-02T13:24:59;14.10;1.00
3023;DHT22;1521;53.584;9.938;2024-03-02T13:27:26;14.20;1.00
3023;DHT22;1521;53.584;9.938;2024-03-02T13:29:52;14.30;1.00
3023;DHT22;1521;53.584;9.938;2024-03-02T13:32:17;14.20;1.00
3023;DHT22;1521;53.584;9.938;2024-03-02T13:34:49;14.50;1.00
3023;DHT22;1521;53.584;9.938;2024-03-02T13:37:14;14.80;1.00
3023;DHT22;1521;53.584;9.938;2024-03-02T13:39:40;15.20;1.00
3023;DHT22;1521;53.584;9.938;2024-03-02T13:42:10;15.60;1.00
3023;DHT22;1521;53.584;9.938;2024-03-02T13:44:36;15.80;1.00
3023;DHT22;1521;53.584;9.938;2024-03-02T13:47:03;16.20;1.00
3023;DHT22;1521;53.584;9.938;2024-03-02T13:49:28;16.40;1.00
3023;DHT22;1521;53.584;9.938;2024-03-02T13:51:59;16.30;1.00
3023;DHT22;1521;53.584;9.938;2024-03-02T13:54:26;16.40;1.00
3023;DHT22;1521;53.584;9.938;2024-03-02T13:56:52;16.50;1.00
3023;DHT22;1521;53.584;9.938;2024-03-02T13:59:18;16.20;1.00
3023;DHT22;1521;53.584;9.938;2024-03-02T14:01:44;16.20;1.00
3023;DHT22;1521;53.584;9.938;2024-03-02T14:04:10;16.20;1.00
3023;DHT22;1521;53.584;9.938;2024-03-02T14:06:35;16.40;1.00
3023;DHT22;1521;53.584;9.938;2024-03-02T14:09:01;16.50;1.00
3023;DHT22;1521;53.584;9.938;2024-03-02T14:11:26;16.50;1.00
3023;DHT22;1521;53.584;9.938;2024-03-02T14:13:52;16.40;1.00
3023;DHT22;1521;53.584;9.938;2024-03-02T14:16:20;16.60;1.00
3023;DHT22;1521;53.584;9.938;2024-03-02T14:18:45;16.50;1.00
3023;DHT22;1521;53.584;9.938;2024-03-02T14:21:11;16.50;1.00
3023;DHT22;1521;53.584;9.938;2024-03-02T14:23:37;16.40;1.00
3023;DHT22;1521;53.584;9.938;2024-03-02T14:26:03;16.20;1.00
3023;DHT22;1521;53.584;9.938;2024-03-02T14:28:28;16.10;1.00
3023;DHT22;1521;53.584;9.938;2024-03-02T14:30:54;16.20;1.00
3023;DHT22;1521;53.584;9.938;2024-03-02T14:33:20;16.00;1.00
3023;DHT22;1521;53.584;9.938;2024-03-02T14:35:46;15.90;1.00
3023;DHT22;1521;53.584;9.938;2024-03-02T14:38:12;15.70;1.00
3023;DHT22;1521;53.584;9.938;2024-03-02T14:40:38;15.60;1.00
3023;DHT22;1521;53.584;9.938;2024-03-02T14:43:04;15.50;1.00
3023;DHT22;1521;53.584;9.938;2024-03-02T14:45:29;15.20;1.00
3023;DHT22;1521;53.584;9.938;2024-03-02T14:47:56;15.10;1.00
3023;DHT22;1521;53.584;9.938;2024-03-02T14:50:25;14.90;1.00
3023;DHT22;1521;53.584;9.938;2024-03-02T14:52:51;15.00;1.00
3023;DHT22;1521;53.584;9.938;2024-03-02T14:55:16;14.90;1.00
3023;DHT22;1521;53.584;9.938;2024-03-02T14:57:42;14.80;1.00
3023;DHT22;1521;53.584;9.938;2024-03-02T15:00:08;14.50;1.00
3023;DHT22;1521;53.584;9.938;2024-03-02T15:02:37;14.40;1.00
3023;DHT22;1521;53.584;9.938;2024-03-02T15:05:03;14.20;1.00
3023;DHT22;1521;53.584;9.938;2024-03-02T15:07:29;14.10;1.00
3023;DHT22;1521;53.584;9.938;2024-03-02T15:09:54;14.00;1.00
3023;DHT22;1521;53.584;9.938;2024-03-02T15:12:20;13.90;1.00
3023;DHT22;1521;53.584;9.938;2024-03-02T15:14:46;13.90;1.00
3023;DHT22;1521;53.584;9.938;2024-03-02T15:17:16;13.80;1.00
3023;DHT22;1521;53.584;9.938;2024-03-02T15:19:42;13.70;1.00
3023;DHT22;1521;53.584;9.938;2024-03-02T15:22:08;13.70;1.00
3023;DHT22;1521;53.584;9.938;2024-03-02T15:24:34;13.50;1.00
3023;DHT22;1521;53.584;9.938;2024-03-02T15:27:00;13.50;1.00
3023;DHT22;1521;53.584;9.938;2024-03-02T15:29:29;13.40;1.00
3023;DHT22;1521;53.584;9.938;2024-03-02T15:31:56;13.30;1.00
3023;DHT22;1521;53.584;9.938;2024-03-02T15:34:22;13.30;1.00
3023;DHT22;1521;53.584;9.938;2024-03-02T15:36:49;13.30;1.00
3023;DHT22;1521;53.584;9.938;2024-03-02T15:39:14;13.20;1.00
3023;DHT22;1521;53.584;9.938;2024-03-02T15:41:40;13.10;1.00
3023;DHT22;1521;53.584;9.938;2024-03-02T15:44:08;13.00;1.00
3023;DHT22;1521;53.584;9.938;2024-03-02T15:46:34;13.00;1.00
3023;DHT22;1521;53.584;9.938;2024-03-02T15:49:00;12.90;1.00
3023;DHT22;1521;53.584;9.938;2024-03-02T15:51:26;12.80;1.00
3023;DHT22;1521;53.584;9.938;2024-03-02T15:53:52;12.80;1.00
3023;DHT22;1521;53.584;9.938;2024-03-02T15:56:18;12.70;1.00
3023;DHT22;1521;53.584;9.938;2024-03-02T15:58:44;12.70;1.00
3023;DHT22;1521;53.584;9.938;2024-03-02T16:01:11;12.60;1.00
3023;DHT22;1521;53.584;9.938;2024-03-02T16:03:37;12.60;1.00
3023;DHT22;1521;53.584;9.938;2024-03-02T16:06:03;12.50;1.00
3023;DHT22;1521;53.584;9.938;2024-03-02T16:08:29;12.50;1.00
3023;DHT22;1521;53.584;9.938;2024-03-02T16:10:54;12.40;1.00
3023;DHT22;1521;53.584;9.938;2024-03-02T16:13:20;12.40;1.00
3023;DHT22;1521;53.584;9.938;2024-03-02T16:15:46;12.50;1.00
3023;DHT22;1521;53.584;9.938;2024-03-02T16:18:12;12.30;1.00
3023;DHT22;1521;53.584;9.938;2024-03-02T16:20:37;12.30;1.00
3023;DHT22;1521;53.584;9.938;2024-03-02T16:23:03;12.30;1.00
3023;DHT22;1521;53.584;9.938;2024-03-02T16:25:28;12.20;1.00